Latest Weather Observations for Ayr

IDQ60801

Issued at 9:35 pm EST Friday 31 October 2014 (issued every 30 minutes, with the page automatically refreshed every 10 minutes)

About weather observations | Map of weather stations | Latest weather observations for QLD | Other Formats
Station Details ID: 033002 Name: AYR DPI RESEARCH STN Lat: -19.62 Lon: 147.38 Height: 17.0 m
Data from the previous 72 hours. | See also: Recent months at Ayr
Date/Time
EST
Temp
°C
App
Temp
°C
Dew
Point
Rel
Hum
%
Delta-T
°C
Wind Press
QNH
hPa
Press
MSL
hPa
Rain
since 9 am
mm
Dir
 
Spd
km/h
Gust
km/h
Spd
kts
Gust
kts
31/09:30pm 21.7 23.2 18.1 80 2.2 NE 7 9 4 5 - - 0.0
31/09:00pm 22.2 24.4 18.4 79 2.4 NE 4 7 2 4 - - 0.0
31/08:30pm 22.7 24.6 18.9 79 2.4 NE 7 9 4 5 - - 0.0
31/08:00pm 23.3 24.5 19.0 77 2.7 NE 11 15 6 8 - - 0.0
31/07:30pm 23.7 24.9 19.0 75 3.0 NE 11 15 6 8 - - 0.0
31/07:00pm 24.1 25.6 19.0 73 3.2 ENE 9 15 5 8 - - 0.0
31/06:30pm 24.5 25.5 18.7 70 3.7 ENE 11 17 6 9 - - 0.0
31/06:00pm 25.2 25.4 18.6 67 4.2 NE 15 22 8 12 - - 0.0
31/05:30pm 25.7 25.5 18.4 64 4.6 NE 17 24 9 13 - - 0.0
31/05:00pm 26.6 25.8 17.9 59 5.5 NE 19 26 10 14 - - 0.0
31/04:30pm 27.7 27.2 17.8 54 6.3 NE 17 24 9 13 - - 0.0
31/04:00pm 28.0 27.6 18.1 55 6.3 NE 17 28 9 15 - - 0.0
31/03:30pm 28.4 27.6 17.0 50 7.1 NE 17 30 9 16 - - 0.0
31/03:00pm 28.7 28.3 17.2 49 7.2 NE 15 24 8 13 - - 0.0
31/02:30pm 29.0 28.9 17.8 50 7.1 NE 15 20 8 11 - - 0.0
31/02:00pm 29.5 29.0 17.0 47 7.9 NE 15 22 8 12 - - 0.0
31/01:30pm 29.6 29.7 17.4 47 7.7 ENE 13 24 7 13 - - 0.0
31/01:00pm 29.6 29.2 17.1 47 7.9 NNE 15 22 8 12 - - 0.0
31/12:30pm 29.2 28.0 16.0 44 8.2 NE 17 24 9 13 - - 0.0
31/12:00pm 28.8 28.0 17.0 49 7.4 NE 17 24 9 13 - - 0.0
31/11:30am 29.5 29.8 18.0 50 7.3 NNE 13 28 7 15 - - 0.0
31/11:00am 28.6 27.9 16.5 48 7.5 NE 15 24 8 13 - - 0.0
31/10:30am 28.7 28.5 17.6 51 7.0 NE 15 22 8 12 - - 0.0
31/10:00am 27.7 27.8 16.6 50 6.9 NE 11 22 6 12 - - 0.0
31/09:30am 28.3 28.8 18.4 55 6.3 ENE 13 22 7 12 - - 0.0
31/09:00am 27.6 28.1 18.3 57 5.9 ENE 13 19 7 10 - - 0.0
31/08:30am 26.7 27.6 18.3 60 5.3 NE 11 17 6 9 - - 0.0
31/08:00am 26.0 27.6 19.2 66 4.4 NNE 9 15 5 8 - - 0.0
31/07:30am 25.4 26.8 19.5 70 3.8 NE 11 17 6 9 - - 0.0
31/07:00am 23.8 26.5 19.5 77 2.8 NE 4 7 2 4 - - 0.0
31/06:30am 21.0 24.2 18.8 87 1.4 CALM 0 0 0 0 - - 0.0
31/06:00am 20.2 22.6 18.0 87 1.4 NNE 2 6 1 3 - - 0.0
31/05:30am 19.7 21.8 17.3 86 1.5 NNE 2 9 1 5 - - 0.0
31/05:00am 19.9 22.5 17.5 86 1.5 CALM 0 6 0 3 - - 0.0
31/04:30am 20.3 23.2 18.1 87 1.4 CALM 0 0 0 0 - - 0.0
31/04:00am 20.0 22.6 17.4 85 1.6 CALM 0 2 0 1 - - 0.0
31/03:30am 20.3 23.1 17.9 86 1.5 CALM 0 4 0 2 - - 0.0
31/03:00am 20.2 22.5 17.8 86 1.5 NE 2 7 1 4 - - 0.0
31/02:30am 20.1 22.6 17.3 84 1.7 CALM 0 0 0 0 - - 0.0
31/02:00am 20.6 22.1 18.0 85 1.6 NE 7 9 4 5 - - 0.0
31/01:30am 20.8 22.4 18.2 85 1.6 ENE 7 9 4 5 - - 0.0
31/01:00am 21.0 22.8 18.4 85 1.6 NE 6 7 3 4 - - 0.0
31/12:30am 21.0 22.7 18.4 85 1.6 NE 7 9 4 5 - - 0.0
31/12:00am 21.3 24.4 18.7 85 1.6 CALM 0 0 0 0 - - 0.0
 
Date/Time
EST
Temp
°C
App
Temp
°C
Dew
Point
Rel
Hum
%
Delta-T
°C
Wind Press
QNH
hPa
Press
MSL
hPa
Rain
since 9 am
mm
Dir
 
Spd
km/h
Gust
km/h
Spd
kts
Gust
kts
30/11:30pm 21.2 23.6 18.8 86 1.5 NE 4 7 2 4 - - 0.0
30/11:00pm 21.0 22.8 18.4 85 1.6 NE 6 7 3 4 - - 0.0
30/10:30pm 21.2 24.1 18.2 83 1.9 CALM 0 0 0 0 - - 0.0
30/10:00pm 21.5 23.5 18.7 84 1.8 NE 6 9 3 5 - - 0.0
30/09:30pm 21.8 23.6 18.4 81 2.1 ENE 6 7 3 4 - - 0.0
30/09:00pm 21.8 23.7 18.6 82 2.0 NE 6 9 3 5 - - 0.0
30/08:30pm 22.1 24.1 18.7 81 2.1 NE 6 7 3 4 - - 0.0
30/08:00pm 22.7 24.7 18.7 78 2.5 ENE 6 9 3 5 - - 0.0
30/07:30pm 22.9 24.7 18.7 77 2.7 NE 7 9 4 5 - - 0.0
30/07:00pm 23.3 25.2 18.6 75 3.0 NE 6 9 3 5 - - 0.0
30/06:30pm 24.3 25.3 18.7 71 3.6 NE 11 17 6 9 - - 0.0
30/06:00pm 25.0 24.8 18.4 66 4.2 NE 17 22 9 12 - - 0.0
30/05:30pm 26.0 26.0 18.2 62 4.9 NE 15 22 8 12 - - 0.0
30/05:00pm 26.9 26.7 17.7 57 5.8 NE 15 20 8 11 - - 0.0
30/04:30pm 27.9 27.4 17.7 53 6.5 NE 17 26 9 14 - - 0.0
30/04:00pm 28.4 27.2 16.0 47 7.7 NE 17 28 9 15 - - 0.0
30/03:30pm 28.8 27.7 16.4 47 7.7 NNE 17 24 9 13 - - 0.0
30/03:00pm 28.6 27.4 16.2 47 7.7 NE 17 26 9 14 - - 0.0
30/02:30pm 29.2 28.4 17.1 48 7.6 NE 17 28 9 15 - - 0.0
30/02:00pm 29.1 27.9 17.0 48 7.6 NNE 19 30 10 16 - - 0.0
30/01:30pm 29.4 28.3 17.2 47 7.7 NNE 19 26 10 14 - - 0.0
30/01:00pm 29.0 27.7 16.9 48 7.6 NNE 19 28 10 15 - - 0.0
30/12:30pm 28.9 27.9 16.5 47 7.7 NNE 17 28 9 15 - - 0.0
30/12:00pm 29.2 27.6 16.0 44 8.2 NE 19 32 10 17 - - 0.0
30/11:30am 28.9 27.6 15.8 45 8.1 NNE 17 28 9 15 - - 0.0
30/11:00am 29.3 28.8 16.8 47 7.8 NNE 15 22 8 12 - - 0.0
30/10:30am 29.1 28.1 16.6 46 7.8 NE 17 24 9 13 - - 0.0
30/10:00am 28.6 27.1 16.8 48 7.4 NNE 20 28 11 15 - - 0.0
30/09:30am 27.7 26.7 17.5 53 6.4 NE 19 30 10 16 - - 0.0
30/09:00am 27.4 26.2 17.6 55 6.2 NE 20 28 11 15 - - 0.0
30/08:30am 26.9 26.4 17.9 57 5.7 NE 17 24 9 13 - - 0.0
30/08:00am 26.3 26.6 18.7 63 4.9 ENE 15 19 8 10 - - 0.0
30/07:30am 25.4 26.8 19.5 70 3.8 ENE 11 15 6 8 - - 0.0
30/07:00am 24.0 25.8 19.5 76 2.9 S 9 13 5 7 - - 0.0
30/06:30am 22.8 24.0 19.8 83 1.9 S 13 17 7 9 - - 0.0
30/06:00am 21.8 23.1 19.4 86 1.5 S 11 15 6 8 - - 0.0
30/05:30am 21.7 23.0 19.4 87 1.5 S 11 15 6 8 - - 0.0
30/05:00am 21.4 23.5 19.3 88 1.3 S 7 13 4 7 - - 0.0
30/04:30am 21.2 22.0 19.1 88 1.3 S 13 19 7 10 - - 0.0
30/04:00am 20.7 22.4 18.6 88 1.3 E 7 15 4 8 - - 0.0
30/03:30am 20.5 23.4 18.1 86 1.5 CALM 0 0 0 0 - - 0.0
30/03:00am 20.7 22.9 18.3 86 1.5 N 4 7 2 4 - - 0.0
30/02:30am 21.1 23.2 19.0 88 1.3 N 6 9 3 5 - - 0.0
30/02:00am 21.0 23.2 18.4 85 1.6 NNE 4 7 2 4 - - 0.0
30/01:30am 22.0 24.3 19.5 86 1.6 NNE 6 7 3 4 - - 0.0
30/01:00am 21.6 23.6 19.2 86 1.5 NNE 7 11 4 6 - - 0.0
30/12:30am 21.5 24.1 19.2 87 1.5 NE 4 7 2 4 - - 0.0
30/12:00am 20.9 24.0 18.7 87 1.4 CALM 0 0 0 0 - - 0.0
 
Date/Time
EST
Temp
°C
App
Temp
°C
Dew
Point
Rel
Hum
%
Delta-T
°C
Wind Press
QNH
hPa
Press
MSL
hPa
Rain
since 9 am
mm
Dir
 
Spd
km/h
Gust
km/h
Spd
kts
Gust
kts
29/11:30pm 20.5 23.4 18.1 86 1.5 CALM 0 0 0 0 - - 0.0
29/11:00pm 20.8 22.9 18.2 85 1.6 ENE 4 7 2 4 - - 0.0
29/10:30pm 20.6 23.2 17.4 82 2.0 CALM 0 0 0 0 - - 0.0
29/10:00pm 21.7 24.6 18.3 81 2.1 CALM 0 2 0 1 - - 0.0
29/09:30pm 22.4 24.2 18.8 80 2.3 N 7 11 4 6 - - 0.0
29/09:00pm 22.1 23.5 18.7 81 2.1 NNE 9 13 5 7 - - 0.0
29/08:30pm 22.0 23.7 18.6 81 2.1 NNE 7 11 4 6 - - 0.0
29/08:00pm 22.6 24.5 19.0 80 2.3 NNE 7 13 4 7 - - 0.0
29/07:30pm 23.0 25.0 18.7 77 2.7 N 6 9 3 5 - - 0.0
29/07:00pm 23.7 25.6 18.6 73 3.2 N 6 9 3 5 - - 0.0
29/06:30pm 24.2 25.5 18.4 70 3.7 N 9 13 5 7 - - 0.0
29/06:00pm 25.2 26.1 18.4 66 4.3 N 11 17 6 9 - - 0.0
29/05:30pm 26.0 25.8 17.6 60 5.3 NNE 15 22 8 12 - - 0.0
29/05:00pm 26.8 26.9 18.4 60 5.3 N 15 26 8 14 - - 0.0
29/04:30pm 27.8 28.2 18.2 56 6.1 N 13 26 7 14 - - 0.0
29/04:00pm 27.8 27.0 17.0 51 6.8 NNE 17 28 9 15 - - 0.0
29/03:30pm 28.4 27.8 17.6 52 6.8 N 17 26 9 14 - - 0.0
29/03:00pm 28.9 28.6 17.4 49 7.3 N 15 24 8 13 - - 0.0
29/02:30pm 29.3 28.8 16.8 47 7.8 N 15 28 8 15 - - 0.0
29/02:00pm 29.1 27.9 17.0 48 7.6 N 19 30 10 16 - - 0.0
29/01:30pm 29.2 28.5 17.4 49 7.5 N 17 26 9 14 - - 0.0
29/01:00pm 29.7 29.3 17.2 47 7.9 NNE 15 22 8 12 - - 0.0
29/12:30pm 30.0 29.6 17.1 46 8.1 N 15 22 8 12 - - 0.0
29/12:00pm 29.8 29.3 16.9 45 8.1 N 15 26 8 14 - - 0.0
29/11:30am 30.5 30.4 17.9 47 8.1 N 15 24 8 13 - - 0.0
29/11:00am 29.5 29.4 17.0 47 7.9 NNE 13 24 7 13 - - 0.0
29/10:30am 29.0 28.7 16.5 46 7.8 NNW 13 20 7 11 - - 0.0
29/10:00am 29.0 29.6 17.8 50 7.1 NNW 11 19 6 10 - - 0.0
29/09:30am 27.7 28.2 17.5 53 6.4 NE 11 15 6 8 - - 0.0
29/09:00am 27.3 28.2 17.5 55 6.2 N 9 15 5 8 - - 0.0
29/08:30am 25.1 26.4 18.5 67 4.2 NNW 9 15 5 8 - - 0.0
29/08:00am 25.5 27.6 18.9 67 4.2 NNW 6 9 3 5 - - 0.0
29/07:30am 24.7 26.9 19.5 73 3.3 E 7 9 4 5 - - 0.0
29/07:00am 22.6 24.7 19.0 80 2.3 SSE 6 9 3 5 - - 0.0
29/06:30am 21.3 23.2 19.0 87 1.5 SSE 7 9 4 5 - - 0.0
29/06:00am 20.0 21.7 18.0 88 1.2 ESE 6 7 3 4 - - 0.0
29/05:30am 19.8 21.2 17.8 88 1.2 E 7 9 4 5 - - 0.0
29/05:00am 19.9 21.1 18.2 90 1.1 ESE 9 13 5 7 - - 0.0
29/04:30am 18.4 20.3 16.6 89 1.1 NNE 2 9 1 5 - - 0.0
29/04:00am 18.3 20.4 16.3 88 1.2 CALM 0 0 0 0 - - 0.0
29/03:30am 18.6 20.9 16.8 89 1.1 CALM 0 0 0 0 - - 0.0
29/03:00am 18.6 20.8 16.6 88 1.2 CALM 0 6 0 3 - - 0.0
29/02:30am 18.4 20.4 16.0 86 1.4 CALM 0 0 0 0 - - 0.0
29/02:00am 18.9 20.1 16.9 88 1.2 NNE 6 7 3 4 - - 0.0
29/01:30am 18.4 20.4 16.0 86 1.4 CALM 0 6 0 3 - - 0.0
29/01:00am 19.3 20.7 17.3 88 1.2 NE 6 7 3 4 - - 0.0
29/12:30am 19.2 20.5 17.0 87 1.3 NE 6 7 3 4 - - 0.0
29/12:00am 19.5 21.9 17.1 86 1.5 CALM 0 0 0 0 - - 0.0
 
Date/Time
EST
Temp
°C
App
Temp
°C
Dew
Point
Rel
Hum
%
Delta-T
°C
Wind Press
QNH
hPa
Press
MSL
hPa
Rain
since 9 am
mm
Dir
 
Spd
km/h
Gust
km/h
Spd
kts
Gust
kts
28/11:30pm 19.9 21.7 17.5 86 1.5 NNE 4 7 2 4 - - 0.0
28/11:00pm 19.8 22.0 16.6 82 1.9 CALM 0 0 0 0 - - 0.0
28/10:30pm 20.7 22.2 17.7 83 1.8 NNE 6 11 3 6 - - 0.0
28/10:00pm 20.7 22.2 17.7 83 1.8 N 6 9 3 5 - - 0.0

Other Formats:

Comma delimited format used in spreadsheet applications
http://www.bom.gov.au/fwo/IDQ60801/IDQ60801.95295.axf

JavaScript Object Notation format (JSON) in row-major order
http://www.bom.gov.au/fwo/IDQ60801/IDQ60801.95295.json